sensor_id;sensor_type;location;lat;lon;timestamp;P1;durP1;ratioP1;P2;durP2;ratioP2
24787;SDS011;12883;52.662;5.196;2023-04-01T00:00:45;18.73;;;18.63;;
24787;SDS011;12883;52.662;5.196;2023-04-01T00:03:11;18.63;;;18.53;;
24787;SDS011;12883;52.662;5.196;2023-04-01T00:05:36;16.30;;;16.20;;
24787;SDS011;12883;52.662;5.196;2023-04-01T00:08:02;14.90;;;14.80;;
24787;SDS011;12883;52.662;5.196;2023-04-01T00:10:27;15.27;;;15.17;;
24787;SDS011;12883;52.662;5.196;2023-04-01T00:12:52;17.10;;;17.00;;
24787;SDS011;12883;52.662;5.196;2023-04-01T00:15:18;16.17;;;15.97;;
24787;SDS011;12883;52.662;5.196;2023-04-01T00:17:43;16.60;;;16.50;;
24787;SDS011;12883;52.662;5.196;2023-04-01T00:20:09;16.87;;;16.77;;
24787;SDS011;12883;52.662;5.196;2023-04-01T00:22:35;16.40;;;16.30;;
24787;SDS011;12883;52.662;5.196;2023-04-01T00:25:01;17.13;;;17.03;;
24787;SDS011;12883;52.662;5.196;2023-04-01T00:27:27;17.47;;;17.30;;
24787;SDS011;12883;52.662;5.196;2023-04-01T00:29:52;17.27;;;17.07;;
24787;SDS011;12883;52.662;5.196;2023-04-01T00:32:17;17.17;;;17.07;;
24787;SDS011;12883;52.662;5.196;2023-04-01T00:34:43;19.00;;;18.80;;
24787;SDS011;12883;52.662;5.196;2023-04-01T00:37:09;16.87;;;16.77;;
24787;SDS011;12883;52.662;5.196;2023-04-01T00:39:35;18.07;;;17.90;;
24787;SDS011;12883;52.662;5.196;2023-04-01T00:42:01;17.90;;;17.70;;
24787;SDS011;12883;52.662;5.196;2023-04-01T00:44:33;16.23;;;16.13;;
24787;SDS011;12883;52.662;5.196;2023-04-01T00:46:59;18.00;;;17.80;;
24787;SDS011;12883;52.662;5.196;2023-04-01T00:49:29;16.87;;;16.77;;
24787;SDS011;12883;52.662;5.196;2023-04-01T00:51:58;17.27;;;17.17;;
24787;SDS011;12883;52.662;5.196;2023-04-01T00:54:26;16.00;;;15.90;;
24787;SDS011;12883;52.662;5.196;2023-04-01T00:57:00;15.20;;;15.10;;
24787;SDS011;12883;52.662;5.196;2023-04-01T00:59:39;17.50;;;17.30;;
24787;SDS011;12883;52.662;5.196;2023-04-01T01:02:08;17.83;;;17.63;;
24787;SDS011;12883;52.662;5.196;2023-04-01T01:04:36;17.90;;;17.80;;
24787;SDS011;12883;52.662;5.196;2023-04-01T01:12:54;17.00;;;16.90;;
24787;SDS011;12883;52.662;5.196;2023-04-01T01:15:44;16.47;;;16.37;;
24787;SDS011;12883;52.662;5.196;2023-04-01T01:29:42;18.63;;;18.53;;
24787;SDS011;12883;52.662;5.196;2023-04-01T01:32:18;18.43;;;18.33;;
24787;SDS011;12883;52.662;5.196;2023-04-01T01:35:04;19.67;;;19.47;;
24787;SDS011;12883;52.662;5.196;2023-04-01T01:37:30;18.27;;;18.17;;
24787;SDS011;12883;52.662;5.196;2023-04-01T01:39:58;19.50;;;19.30;;
24787;SDS011;12883;52.662;5.196;2023-04-01T01:42:28;19.27;;;19.17;;
24787;SDS011;12883;52.662;5.196;2023-04-01T01:44:56;19.20;;;19.10;;
24787;SDS011;12883;52.662;5.196;2023-04-01T01:47:24;18.37;;;18.27;;
24787;SDS011;12883;52.662;5.196;2023-04-01T01:49:51;20.97;;;20.77;;
24787;SDS011;12883;52.662;5.196;2023-04-01T01:52:18;21.07;;;20.87;;
24787;SDS011;12883;52.662;5.196;2023-04-01T01:54:50;20.47;;;20.27;;
24787;SDS011;12883;52.662;5.196;2023-04-01T01:57:31;21.70;;;21.57;;
24787;SDS011;12883;52.662;5.196;2023-04-01T02:00:04;21.30;;;21.10;;
24787;SDS011;12883;52.662;5.196;2023-04-01T02:02:39;20.03;;;19.83;;
24787;SDS011;12883;52.662;5.196;2023-04-01T02:05:05;21.10;;;20.90;;
24787;SDS011;12883;52.662;5.196;2023-04-01T02:07:34;21.47;;;21.27;;
24787;SDS011;12883;52.662;5.196;2023-04-01T02:10:02;20.90;;;20.70;;
24787;SDS011;12883;52.662;5.196;2023-04-01T02:12:28;20.23;;;20.13;;
24787;SDS011;12883;52.662;5.196;2023-04-01T02:15:04;17.03;;;16.93;;
24787;SDS011;12883;52.662;5.196;2023-04-01T02:17:34;15.63;;;15.53;;
24787;SDS011;12883;52.662;5.196;2023-04-01T02:20:08;13.67;;;13.67;;
24787;SDS011;12883;52.662;5.196;2023-04-01T02:22:55;12.63;;;12.63;;
24787;SDS011;12883;52.662;5.196;2023-04-01T02:25:27;10.70;;;10.70;;
24787;SDS011;12883;52.662;5.196;2023-04-01T02:27:55;10.33;;;10.33;;
24787;SDS011;12883;52.662;5.196;2023-04-01T02:30:23;8.13;;;8.13;;
24787;SDS011;12883;52.662;5.196;2023-04-01T02:32:50;7.60;;;7.60;;
24787;SDS011;12883;52.662;5.196;2023-04-01T02:35:16;6.13;;;6.13;;
24787;SDS011;12883;52.662;5.196;2023-04-01T02:37:43;4.17;;;4.17;;
24787;SDS011;12883;52.662;5.196;2023-04-01T02:40:11;3.63;;;3.63;;
24787;SDS011;12883;52.662;5.196;2023-04-01T02:42:38;3.30;;;3.30;;
24787;SDS011;12883;52.662;5.196;2023-04-01T02:45:03;3.20;;;3.20;;
24787;SDS011;12883;52.662;5.196;2023-04-01T02:47:29;2.67;;;2.67;;
24787;SDS011;12883;52.662;5.196;2023-04-01T02:49:55;2.73;;;2.73;;
24787;SDS011;12883;52.662;5.196;2023-04-01T02:52:26;3.57;;;3.57;;
24787;SDS011;12883;52.662;5.196;2023-04-01T02:54:53;5.00;;;5.00;;
24787;SDS011;12883;52.662;5.196;2023-04-01T02:57:20;6.00;;;6.00;;
24787;SDS011;12883;52.662;5.196;2023-04-01T02:59:45;8.00;;;8.00;;
24787;SDS011;12883;52.662;5.196;2023-04-01T03:02:11;9.70;;;9.70;;
24787;SDS011;12883;52.662;5.196;2023-04-01T03:04:36;10.53;;;10.53;;
24787;SDS011;12883;52.662;5.196;2023-04-01T03:07:02;11.30;;;11.30;;
24787;SDS011;12883;52.662;5.196;2023-04-01T03:09:27;13.23;;;13.23;;
24787;SDS011;12883;52.662;5.196;2023-04-01T03:11:53;13.97;;;13.97;;
24787;SDS011;12883;52.662;5.196;2023-04-01T03:14:19;15.70;;;15.70;;
24787;SDS011;12883;52.662;5.196;2023-04-01T03:16:44;15.47;;;15.47;;
24787;SDS011;12883;52.662;5.196;2023-04-01T03:19:10;16.23;;;16.20;;
24787;SDS011;12883;52.662;5.196;2023-04-01T03:21:35;16.17;;;16.17;;
24787;SDS011;12883;52.662;5.196;2023-04-01T03:24:00;17.33;;;17.33;;
24787;SDS011;12883;52.662;5.196;2023-04-01T03:26:26;17.03;;;17.03;;
24787;SDS011;12883;52.662;5.196;2023-04-01T03:28:55;16.80;;;16.80;;
24787;SDS011;12883;52.662;5.196;2023-04-01T03:31:20;17.90;;;17.87;;
24787;SDS011;12883;52.662;5.196;2023-04-01T03:33:46;16.40;;;16.40;;
24787;SDS011;12883;52.662;5.196;2023-04-01T03:36:12;14.10;;;14.10;;
24787;SDS011;12883;52.662;5.196;2023-04-01T03:38:38;13.30;;;13.30;;
24787;SDS011;12883;52.662;5.196;2023-04-01T03:41:06;12.63;;;12.63;;
24787;SDS011;12883;52.662;5.196;2023-04-01T03:43:31;11.83;;;11.83;;
24787;SDS011;12883;52.662;5.196;2023-04-01T03:45:57;12.77;;;12.77;;
24787;SDS011;12883;52.662;5.196;2023-04-01T03:48:23;14.17;;;14.17;;
24787;SDS011;12883;52.662;5.196;2023-04-01T03:50:50;15.80;;;15.80;;
24787;SDS011;12883;52.662;5.196;2023-04-01T03:53:15;14.97;;;14.97;;
24787;SDS011;12883;52.662;5.196;2023-04-01T03:55:41;15.90;;;15.83;;
24787;SDS011;12883;52.662;5.196;2023-04-01T03:58:06;14.53;;;14.53;;
24787;SDS011;12883;52.662;5.196;2023-04-01T04:00:32;16.07;;;16.07;;
24787;SDS011;12883;52.662;5.196;2023-04-01T04:02:58;14.87;;;14.87;;
24787;SDS011;12883;52.662;5.196;2023-04-01T04:05:24;14.83;;;14.83;;
24787;SDS011;12883;52.662;5.196;2023-04-01T04:07:50;14.60;;;14.60;;
24787;SDS011;12883;52.662;5.196;2023-04-01T04:10:16;13.73;;;13.73;;
24787;SDS011;12883;52.662;5.196;2023-04-01T04:12:42;15.13;;;15.13;;
24787;SDS011;12883;52.662;5.196;2023-04-01T04:15:07;14.47;;;14.47;;
24787;SDS011;12883;52.662;5.196;2023-04-01T04:17:33;14.67;;;14.67;;
24787;SDS011;12883;52.662;5.196;2023-04-01T04:19:59;15.50;;;15.50;;
24787;SDS011;12883;52.662;5.196;2023-04-01T04:22:24;15.23;;;15.23;;
24787;SDS011;12883;52.662;5.196;2023-04-01T04:24:50;16.00;;;16.00;;
24787;SDS011;12883;52.662;5.196;2023-04-01T04:27:15;16.50;;;16.50;;
24787;SDS011;12883;52.662;5.196;2023-04-01T04:29:41;15.43;;;15.43;;
24787;SDS011;12883;52.662;5.196;2023-04-01T04:32:06;15.43;;;15.43;;
24787;SDS011;12883;52.662;5.196;2023-04-01T04:34:32;15.60;;;15.60;;
24787;SDS011;12883;52.662;5.196;2023-04-01T04:36:57;16.57;;;16.57;;
24787;SDS011;12883;52.662;5.196;2023-04-01T04:39:22;16.13;;;16.13;;
24787;SDS011;12883;52.662;5.196;2023-04-01T04:41:48;16.40;;;16.30;;
24787;SDS011;12883;52.662;5.196;2023-04-01T04:44:13;12.13;;;12.13;;
24787;SDS011;12883;52.662;5.196;2023-04-01T04:46:39;12.27;;;12.27;;
24787;SDS011;12883;52.662;5.196;2023-04-01T04:49:05;11.10;;;11.10;;
24787;SDS011;12883;52.662;5.196;2023-04-01T04:51:30;10.23;;;10.23;;
24787;SDS011;12883;52.662;5.196;2023-04-01T04:53:59;9.67;;;9.67;;
24787;SDS011;12883;52.662;5.196;2023-04-01T04:56:25;9.20;;;9.20;;
24787;SDS011;12883;52.662;5.196;2023-04-01T04:58:51;8.57;;;8.57;;
24787;SDS011;12883;52.662;5.196;2023-04-01T05:01:17;7.40;;;7.40;;
24787;SDS011;12883;52.662;5.196;2023-04-01T05:03:42;7.33;;;7.33;;
24787;SDS011;12883;52.662;5.196;2023-04-01T05:06:09;6.37;;;6.37;;
24787;SDS011;12883;52.662;5.196;2023-04-01T05:08:36;5.73;;;5.73;;
24787;SDS011;12883;52.662;5.196;2023-04-01T05:11:03;4.87;;;4.87;;
24787;SDS011;12883;52.662;5.196;2023-04-01T05:13:31;4.10;;;4.10;;
24787;SDS011;12883;52.662;5.196;2023-04-01T05:15:56;3.60;;;3.60;;
24787;SDS011;12883;52.662;5.196;2023-04-01T05:18:22;3.70;;;3.70;;
24787;SDS011;12883;52.662;5.196;2023-04-01T05:20:51;6.50;;;6.50;;
24787;SDS011;12883;52.662;5.196;2023-04-01T05:23:18;7.97;;;7.97;;
24787;SDS011;12883;52.662;5.196;2023-04-01T05:25:45;10.67;;;10.67;;
24787;SDS011;12883;52.662;5.196;2023-04-01T05:28:11;13.53;;;13.53;;
24787;SDS011;12883;52.662;5.196;2023-04-01T05:30:36;16.23;;;16.23;;
24787;SDS011;12883;52.662;5.196;2023-04-01T05:33:04;18.43;;;18.33;;
24787;SDS011;12883;52.662;5.196;2023-04-01T05:35:30;17.83;;;17.73;;
24787;SDS011;12883;52.662;5.196;2023-04-01T05:37:55;17.60;;;17.50;;
24787;SDS011;12883;52.662;5.196;2023-04-01T05:40:20;18.13;;;18.03;;
24787;SDS011;12883;52.662;5.196;2023-04-01T05:42:46;17.90;;;17.90;;
24787;SDS011;12883;52.662;5.196;2023-04-01T05:45:11;17.77;;;17.67;;
24787;SDS011;12883;52.662;5.196;2023-04-01T05:47:36;17.47;;;17.47;;
24787;SDS011;12883;52.662;5.196;2023-04-01T05:50:02;17.57;;;17.53;;
24787;SDS011;12883;52.662;5.196;2023-04-01T05:52:27;18.97;;;18.87;;
24787;SDS011;12883;52.662;5.196;2023-04-01T05:54:53;18.83;;;18.73;;
24787;SDS011;12883;52.662;5.196;2023-04-01T05:57:18;18.93;;;18.83;;
24787;SDS011;12883;52.662;5.196;2023-04-01T05:59:43;18.00;;;17.90;;
24787;SDS011;12883;52.662;5.196;2023-04-01T06:02:09;18.33;;;18.23;;
24787;SDS011;12883;52.662;5.196;2023-04-01T06:04:39;18.53;;;18.43;;
24787;SDS011;12883;52.662;5.196;2023-04-01T06:07:10;16.87;;;16.87;;
24787;SDS011;12883;52.662;5.196;2023-04-01T06:09:40;18.63;;;18.53;;
24787;SDS011;12883;52.662;5.196;2023-04-01T06:25:42;20.20;;;20.10;;
24787;SDS011;12883;52.662;5.196;2023-04-01T06:40:36;21.50;;;21.40;;
24787;SDS011;12883;52.662;5.196;2023-04-01T06:51:27;20.93;;;20.83;;
24787;SDS011;12883;52.662;5.196;2023-04-01T06:54:04;21.83;;;21.73;;
24787;SDS011;12883;52.662;5.196;2023-04-01T06:56:36;22.07;;;21.97;;
24787;SDS011;12883;52.662;5.196;2023-04-01T06:59:06;22.87;;;22.77;;
24787;SDS011;12883;52.662;5.196;2023-04-01T07:01:38;22.13;;;22.03;;
24787;SDS011;12883;52.662;5.196;2023-04-01T07:06:36;23.10;;;23.00;;
24787;SDS011;12883;52.662;5.196;2023-04-01T07:09:12;24.77;;;24.67;;
24787;SDS011;12883;52.662;5.196;2023-04-01T07:11:41;24.87;;;24.77;;
24787;SDS011;12883;52.662;5.196;2023-04-01T07:14:17;24.10;;;24.00;;
24787;SDS011;12883;52.662;5.196;2023-04-01T07:27:38;25.50;;;25.40;;
24787;SDS011;12883;52.662;5.196;2023-04-01T07:30:06;25.63;;;25.47;;
24787;SDS011;12883;52.662;5.196;2023-04-01T07:35:28;25.97;;;25.87;;
24787;SDS011;12883;52.662;5.196;2023-04-01T07:41:14;25.63;;;25.53;;
24787;SDS011;12883;52.662;5.196;2023-04-01T07:49:22;27.63;;;27.43;;
24787;SDS011;12883;52.662;5.196;2023-04-01T07:57:54;27.07;;;26.97;;
24787;SDS011;12883;52.662;5.196;2023-04-01T08:03:20;26.90;;;26.80;;
24787;SDS011;12883;52.662;5.196;2023-04-01T08:08:57;26.63;;;26.53;;
24787;SDS011;12883;52.662;5.196;2023-04-01T08:14:47;27.87;;;27.77;;
24787;SDS011;12883;52.662;5.196;2023-04-01T08:23:16;27.73;;;27.53;;
24787;SDS011;12883;52.662;5.196;2023-04-01T08:28:24;27.97;;;27.77;;
24787;SDS011;12883;52.662;5.196;2023-04-01T08:33:49;26.20;;;26.00;;
24787;SDS011;12883;52.662;5.196;2023-04-01T08:36:20;25.33;;;25.23;;
24787;SDS011;12883;52.662;5.196;2023-04-01T08:39:04;25.83;;;25.70;;
24787;SDS011;12883;52.662;5.196;2023-04-01T08:47:44;24.60;;;24.50;;
24787;SDS011;12883;52.662;5.196;2023-04-01T09:01:07;22.80;;;22.70;;
24787;SDS011;12883;52.662;5.196;2023-04-01T09:15:01;22.80;;;22.70;;
24787;SDS011;12883;52.662;5.196;2023-04-01T09:34:03;18.53;;;18.43;;
24787;SDS011;12883;52.662;5.196;2023-04-01T09:36:43;19.93;;;19.83;;
24787;SDS011;12883;52.662;5.196;2023-04-01T09:44:34;20.17;;;20.07;;
24787;SDS011;12883;52.662;5.196;2023-04-01T09:47:31;20.33;;;20.23;;
24787;SDS011;12883;52.662;5.196;2023-04-01T10:00:55;22.57;;;22.47;;
24787;SDS011;12883;52.662;5.196;2023-04-01T10:14:34;24.35;;;24.25;;
24787;SDS011;12883;52.662;5.196;2023-04-01T10:28:30;26.63;;;26.53;;
24787;SDS011;12883;52.662;5.196;2023-04-01T10:42:32;24.63;;;24.52;;
24787;SDS011;12883;52.662;5.196;2023-04-01T10:45:21;22.07;;;21.97;;
24787;SDS011;12883;52.662;5.196;2023-04-01T10:48:12;20.13;;;20.03;;
24787;SDS011;12883;52.662;5.196;2023-04-01T11:26:06;10.03;;;10.03;;
24787;SDS011;12883;52.662;5.196;2023-04-01T11:45:49;9.23;;;9.23;;
24787;SDS011;12883;52.662;5.196;2023-04-01T11:51:21;8.67;;;8.67;;
24787;SDS011;12883;52.662;5.196;2023-04-01T11:54:03;8.53;;;8.53;;
24787;SDS011;12883;52.662;5.196;2023-04-01T11:56:56;9.20;;;9.20;;
24787;SDS011;12883;52.662;5.196;2023-04-01T12:05:19;8.87;;;8.87;;
24787;SDS011;12883;52.662;5.196;2023-04-01T12:10:25;9.40;;;9.40;;
24787;SDS011;12883;52.662;5.196;2023-04-01T12:16:16;8.67;;;8.67;;
24787;SDS011;12883;52.662;5.196;2023-04-01T12:19:03;9.33;;;9.33;;
24787;SDS011;12883;52.662;5.196;2023-04-01T12:21:38;10.15;;;10.15;;
24787;SDS011;12883;52.662;5.196;2023-04-01T12:30:06;9.00;;;9.00;;
24787;SDS011;12883;52.662;5.196;2023-04-01T12:32:40;9.80;;;9.80;;
24787;SDS011;12883;52.662;5.196;2023-04-01T12:35:14;9.37;;;9.37;;
24787;SDS011;12883;52.662;5.196;2023-04-01T12:46:06;9.53;;;9.53;;
24787;SDS011;12883;52.662;5.196;2023-04-01T12:57:31;9.03;;;9.03;;
24787;SDS011;12883;52.662;5.196;2023-04-01T13:13:39;10.10;;;10.10;;
24787;SDS011;12883;52.662;5.196;2023-04-01T13:30:02;10.40;;;10.40;;
24787;SDS011;12883;52.662;5.196;2023-04-01T13:32:47;9.90;;;9.90;;
24787;SDS011;12883;52.662;5.196;2023-04-01T13:44:33;10.57;;;10.57;;
24787;SDS011;12883;52.662;5.196;2023-04-01T13:58:23;7.53;;;7.53;;
24787;SDS011;12883;52.662;5.196;2023-04-01T14:04:41;6.13;;;6.13;;
24787;SDS011;12883;52.662;5.196;2023-04-01T14:20:38;5.27;;;5.27;;
24787;SDS011;12883;52.662;5.196;2023-04-01T14:26:21;5.00;;;5.00;;
24787;SDS011;12883;52.662;5.196;2023-04-01T14:32:05;4.93;;;4.93;;
24787;SDS011;12883;52.662;5.196;2023-04-01T14:34:53;4.77;;;4.77;;
24787;SDS011;12883;52.662;5.196;2023-04-01T14:37:53;4.67;;;4.67;;
24787;SDS011;12883;52.662;5.196;2023-04-01T14:49:22;4.67;;;4.67;;
24787;SDS011;12883;52.662;5.196;2023-04-01T14:51:55;4.30;;;4.30;;
24787;SDS011;12883;52.662;5.196;2023-04-01T14:54:38;4.03;;;4.03;;
24787;SDS011;12883;52.662;5.196;2023-04-01T14:57:14;3.77;;;3.77;;
24787;SDS011;12883;52.662;5.196;2023-04-01T14:59:54;3.73;;;3.73;;
24787;SDS011;12883;52.662;5.196;2023-04-01T15:05:47;3.93;;;3.93;;
24787;SDS011;12883;52.662;5.196;2023-04-01T15:08:20;3.60;;;3.60;;
24787;SDS011;12883;52.662;5.196;2023-04-01T15:19:29;3.23;;;3.23;;
24787;SDS011;12883;52.662;5.196;2023-04-01T15:24:59;3.27;;;3.27;;
24787;SDS011;12883;52.662;5.196;2023-04-01T15:27:51;3.37;;;3.37;;
24787;SDS011;12883;52.662;5.196;2023-04-01T15:44:32;3.70;;;3.70;;
24787;SDS011;12883;52.662;5.196;2023-04-01T15:47:03;2.97;;;2.97;;
24787;SDS011;12883;52.662;5.196;2023-04-01T15:56:07;3.30;;;3.30;;
24787;SDS011;12883;52.662;5.196;2023-04-01T15:58:40;3.10;;;3.10;;
24787;SDS011;12883;52.662;5.196;2023-04-01T16:01:18;2.90;;;2.90;;
24787;SDS011;12883;52.662;5.196;2023-04-01T16:17:49;2.57;;;2.57;;
24787;SDS011;12883;52.662;5.196;2023-04-01T16:26:03;2.20;;;2.20;;
24787;SDS011;12883;52.662;5.196;2023-04-01T16:31:49;2.37;;;2.37;;
24787;SDS011;12883;52.662;5.196;2023-04-01T16:34:43;2.67;;;2.67;;
24787;SDS011;12883;52.662;5.196;2023-04-01T16:37:21;2.17;;;2.17;;
24787;SDS011;12883;52.662;5.196;2023-04-01T16:48:52;2.90;;;2.90;;
24787;SDS011;12883;52.662;5.196;2023-04-01T16:51:17;2.47;;;2.47;;
24787;SDS011;12883;52.662;5.196;2023-04-01T16:56:21;2.83;;;2.83;;
24787;SDS011;12883;52.662;5.196;2023-04-01T16:58:55;2.70;;;2.70;;
24787;SDS011;12883;52.662;5.196;2023-04-01T17:01:43;2.23;;;2.23;;
24787;SDS011;12883;52.662;5.196;2023-04-01T17:04:27;2.20;;;2.20;;
24787;SDS011;12883;52.662;5.196;2023-04-01T17:13:06;2.50;;;2.50;;
24787;SDS011;12883;52.662;5.196;2023-04-01T17:16:00;2.40;;;2.40;;
24787;SDS011;12883;52.662;5.196;2023-04-01T17:21:15;2.73;;;2.73;;
24787;SDS011;12883;52.662;5.196;2023-04-01T17:23:50;2.90;;;2.90;;
24787;SDS011;12883;52.662;5.196;2023-04-01T17:31:46;3.23;;;3.23;;
24787;SDS011;12883;52.662;5.196;2023-04-01T17:42:55;3.77;;;3.77;;
24787;SDS011;12883;52.662;5.196;2023-04-01T17:51:25;4.13;;;4.13;;
24787;SDS011;12883;52.662;5.196;2023-04-01T17:59:39;4.23;;;4.23;;
24787;SDS011;12883;52.662;5.196;2023-04-01T18:02:23;4.30;;;4.30;;
24787;SDS011;12883;52.662;5.196;2023-04-01T18:10:20;4.97;;;4.97;;
24787;SDS011;12883;52.662;5.196;2023-04-01T18:30:31;5.93;;;5.93;;
24787;SDS011;12883;52.662;5.196;2023-04-01T18:33:09;5.10;;;5.10;;
24787;SDS011;12883;52.662;5.196;2023-04-01T18:35:50;5.50;;;5.50;;
24787;SDS011;12883;52.662;5.196;2023-04-01T18:38:28;5.93;;;5.93;;
24787;SDS011;12883;52.662;5.196;2023-04-01T18:41:14;5.33;;;5.33;;
24787;SDS011;12883;52.662;5.196;2023-04-01T18:43:48;5.90;;;5.90;;
24787;SDS011;12883;52.662;5.196;2023-04-01T18:49:15;5.73;;;5.73;;
24787;SDS011;12883;52.662;5.196;2023-04-01T18:51:53;6.23;;;6.23;;
24787;SDS011;12883;52.662;5.196;2023-04-01T18:54:27;6.10;;;6.10;;
24787;SDS011;12883;52.662;5.196;2023-04-01T18:57:12;7.20;;;7.20;;
24787;SDS011;12883;52.662;5.196;2023-04-01T18:59:50;7.30;;;7.30;;
24787;SDS011;12883;52.662;5.196;2023-04-01T19:02:31;7.40;;;7.40;;
24787;SDS011;12883;52.662;5.196;2023-04-01T19:05:14;7.03;;;7.03;;
24787;SDS011;12883;52.662;5.196;2023-04-01T19:07:45;7.60;;;7.60;;
24787;SDS011;12883;52.662;5.196;2023-04-01T19:10:15;6.53;;;6.53;;
24787;SDS011;12883;52.662;5.196;2023-04-01T19:21:16;7.13;;;7.13;;
24787;SDS011;12883;52.662;5.196;2023-04-01T19:29:07;7.37;;;7.37;;
24787;SDS011;12883;52.662;5.196;2023-04-01T19:43:02;7.60;;;7.60;;
24787;SDS011;12883;52.662;5.196;2023-04-01T19:45:46;7.40;;;7.40;;
24787;SDS011;12883;52.662;5.196;2023-04-01T19:48:24;8.00;;;8.00;;
24787;SDS011;12883;52.662;5.196;2023-04-01T19:51:06;7.07;;;7.07;;
24787;SDS011;12883;52.662;5.196;2023-04-01T19:56:24;7.23;;;7.23;;
24787;SDS011;12883;52.662;5.196;2023-04-01T19:59:03;6.90;;;6.90;;
24787;SDS011;12883;52.662;5.196;2023-04-01T20:04:44;7.30;;;7.30;;
24787;SDS011;12883;52.662;5.196;2023-04-01T20:07:24;7.63;;;7.63;;
24787;SDS011;12883;52.662;5.196;2023-04-01T20:17:56;7.93;;;7.93;;
24787;SDS011;12883;52.662;5.196;2023-04-01T20:20:24;7.30;;;7.30;;
24787;SDS011;12883;52.662;5.196;2023-04-01T20:23:05;8.20;;;8.20;;
24787;SDS011;12883;52.662;5.196;2023-04-01T20:25:57;8.47;;;8.47;;
24787;SDS011;12883;52.662;5.196;2023-04-01T20:39:20;8.10;;;8.10;;
24787;SDS011;12883;52.662;5.196;2023-04-01T20:42:16;9.13;;;9.13;;
24787;SDS011;12883;52.662;5.196;2023-04-01T20:48:18;8.40;;;8.40;;
24787;SDS011;12883;52.662;5.196;2023-04-01T20:50:58;8.87;;;8.87;;
24787;SDS011;12883;52.662;5.196;2023-04-01T20:53:42;8.60;;;8.60;;
24787;SDS011;12883;52.662;5.196;2023-04-01T20:59:28;8.57;;;8.57;;
24787;SDS011;12883;52.662;5.196;2023-04-01T21:02:10;9.40;;;9.40;;
24787;SDS011;12883;52.662;5.196;2023-04-01T21:21:37;8.50;;;8.50;;
24787;SDS011;12883;52.662;5.196;2023-04-01T21:24:29;9.07;;;9.07;;
24787;SDS011;12883;52.662;5.196;2023-04-01T21:27:15;9.00;;;9.00;;
24787;SDS011;12883;52.662;5.196;2023-04-01T21:35:26;8.70;;;8.70;;
24787;SDS011;12883;52.662;5.196;2023-04-01T21:59:48;8.50;;;8.50;;
24787;SDS011;12883;52.662;5.196;2023-04-01T22:13:53;9.83;;;9.83;;
24787;SDS011;12883;52.662;5.196;2023-04-01T22:21:51;8.27;;;8.27;;
24787;SDS011;12883;52.662;5.196;2023-04-01T22:27:35;8.30;;;8.30;;
24787;SDS011;12883;52.662;5.196;2023-04-01T22:30:22;8.40;;;8.40;;
24787;SDS011;12883;52.662;5.196;2023-04-01T22:32:51;7.63;;;7.63;;
24787;SDS011;12883;52.662;5.196;2023-04-01T22:40:52;8.20;;;8.20;;
24787;SDS011;12883;52.662;5.196;2023-04-01T22:43:42;8.53;;;8.53;;
24787;SDS011;12883;52.662;5.196;2023-04-01T22:49:08;7.83;;;7.83;;
24787;SDS011;12883;52.662;5.196;2023-04-01T22:51:42;8.17;;;8.17;;
24787;SDS011;12883;52.662;5.196;2023-04-01T22:56:57;7.70;;;7.70;;
24787;SDS011;12883;52.662;5.196;2023-04-01T22:59:37;7.63;;;7.63;;
24787;SDS011;12883;52.662;5.196;2023-04-01T23:04:54;6.63;;;6.63;;
24787;SDS011;12883;52.662;5.196;2023-04-01T23:09:53;6.90;;;6.90;;
24787;SDS011;12883;52.662;5.196;2023-04-01T23:12:21;6.83;;;6.83;;
24787;SDS011;12883;52.662;5.196;2023-04-01T23:14:50;7.33;;;7.33;;
24787;SDS011;12883;52.662;5.196;2023-04-01T23:31:44;6.53;;;6.53;;
24787;SDS011;12883;52.662;5.196;2023-04-01T23:36:39;6.00;;;6.00;;
24787;SDS011;12883;52.662;5.196;2023-04-01T23:39:24;5.63;;;5.63;;
24787;SDS011;12883;52.662;5.196;2023-04-01T23:41:51;6.00;;;6.00;;
24787;SDS011;12883;52.662;5.196;2023-04-01T23:44:19;6.40;;;6.40;;
24787;SDS011;12883;52.662;5.196;2023-04-01T23:46:46;6.03;;;6.03;;
24787;SDS011;12883;52.662;5.196;2023-04-01T23:49:16;5.93;;;5.93;;
24787;SDS011;12883;52.662;5.196;2023-04-01T23:51:53;6.07;;;6.07;;
24787;SDS011;12883;52.662;5.196;2023-04-01T23:56:56;5.77;;;5.77;;
24787;SDS011;12883;52.662;5.196;2023-04-01T23:59:29;6.37;;;6.37;;
